Shinkai Maru — JJ4012 — position and weather

sailwx.info

Track history (hours):
 
Tides and Currents Weather Stations Pressure Air Temp Water Temp Dewpoint Dewpoint Depression Visibility Wind Speed Wind Dir Waves Ship Positions

Shinkai Maru

Last reported at 2015-Mar-28 11:20 UTC. Time now 2015-Mar-28 12:18 UTC.
Position N 35°41' E 139°57'.

Length 76 m; draft 4.2 m.

Type: Cargo ship. MMSI: 431301346.

Date/timePositionNaut miles runAvg speedWind from/ knotsBaromVisibWave heightAir tempDewpointWater temp
2015-Mar-28 11:20N 35°41' E 139°57'0 0.0
2015-Mar-28 10:32N 35°41' E 139°57'0 0.0
2015-Mar-28 09:29N 35°41' E 139°57'0 0.0
2015-Mar-28 08:21N 35°41' E 139°57'0 0.0
2015-Mar-28 07:29N 35°41' E 139°57'0 0.0
2015-Mar-28 06:32N 35°41' E 139°57'0 0.0
2015-Mar-28 05:26N 35°41' E 139°57'0 0.0
2015-Mar-28 04:29N 35°41' E 139°57'0 0.0
2015-Mar-28 03:32N 35°41' E 139°57'0 0.0
2015-Mar-28 02:32N 35°41' E 139°57'0 0.0
2015-Mar-28 01:26N 35°41' E 139°57'0 0.0
2015-Mar-28 00:32N 35°41' E 139°57'0 0.0
2015-Mar-27 23:32N 35°41' E 139°57'0 0.0
2015-Mar-27 22:29N 35°41' E 139°57'0 0.0
2015-Mar-27 21:32N 35°41' E 139°57'0 0.0
2015-Mar-27 20:32N 35°41' E 139°57'0 0.0
2015-Mar-27 19:32N 35°41' E 139°57'0 0.0
2015-Mar-27 18:29N 35°41' E 139°57'0 0.0
2015-Mar-27 17:29N 35°41' E 139°57'0 0.0
2015-Mar-27 16:32N 35°41' E 139°57'0 0.0
2015-Mar-27 15:32N 35°41' E 139°57'0 0.0
2015-Mar-27 14:33N 35°41' E 139°57'6 6.4
2015-Mar-27 13:33N 35°34' E 139°57'1212.3
2015-Mar-27 12:33N 35°25' E 139°47'1111.0
2015-Mar-27 11:34N 35°14' E 139°47'1211.4
2015-Mar-27 10:33N 35°04' E 139°41'238 9.9
2015-Mar-26 10:25N 34°14' E 134°59'1312.9
2015-Mar-26 09:23N 34°27' E 135°01'1012.0
2015-Mar-26 08:33N 34°37' E 135°01'6 0.3
2015-Mar-25 10:30N 34°37' E 134°53'9 9.1
2015-Mar-25 09:33N 34°36' E 135°04'9 9.0
2015-Mar-25 08:32N 34°27' E 135°02'1210.1
2015-Mar-25 07:21N 34°15' E 134°59'810.1
2015-Mar-25 06:33N 34°07' E 135°00'232 8.8
2015-Mar-24 04:11N 35°03' E 139°34'711.9
2015-Mar-24 03:33N 35°07' E 139°42'1111.4
2015-Mar-24 02:33N 35°18' E 139°44'1010.2
2015-Mar-24 01:33N 35°28' E 139°48'1212.2
2015-Mar-24 00:33N 35°37' E 139°58'5 4.6
2015-Mar-23 23:33N 35°41' E 139°57'0 0.0
2015-Mar-23 22:33N 35°41' E 139°57'0 0.0
2015-Mar-23 21:27N 35°41' E 139°57'0 0.0
2015-Mar-23 20:33N 35°41' E 139°57'0 0.0
2015-Mar-23 19:33N 35°41' E 139°57'0 0.0
2015-Mar-23 18:33N 35°41' E 139°57'0 0.0
2015-Mar-23 17:30N 35°41' E 139°57'0 0.0
2015-Mar-23 16:33N 35°41' E 139°57'0 0.0
2015-Mar-23 15:33N 35°41' E 139°57'0 0.0
2015-Mar-23 14:33N 35°41' E 139°57'0 0.0
2015-Mar-23 13:30N 35°41' E 139°57'0 0.0
2015-Mar-23 12:27N 35°41' E 139°57'0 0.0
2015-Mar-23 11:24N 35°41' E 139°57'0 0.0
2015-Mar-23 10:30N 35°41' E 139°57'0 0.0
2015-Mar-23 09:33N 35°41' E 139°57'0 0.0
2015-Mar-23 08:33N 35°41' E 139°57'0 0.0
2015-Mar-23 07:30N 35°41' E 139°57'0 0.0
2015-Mar-23 06:30N 35°41' E 139°57'0 0.0
2015-Mar-23 05:33N 35°41' E 139°57'0 0.0
2015-Mar-23 04:30N 35°41' E 139°57'0 0.0
2015-Mar-23 03:27N 35°41' E 139°57'0 0.0
2015-Mar-23 02:33N 35°41' E 139°57'3 2.5
2015-Mar-23 01:33N 35°39' E 139°58'2 1.7
2015-Mar-23 00:28N 35°37' E 139°59'0 0.0
2015-Mar-22 23:28N 35°37' E 139°59'0 0.0
2015-Mar-22 22:28N 35°37' E 139°59'0 0.0
2015-Mar-22 21:28N 35°37' E 139°59'0 0.0
2015-Mar-22 20:16N 35°37' E 139°59'0 0.0
2015-Mar-22 19:16N 35°37' E 139°59'0 0.0
2015-Mar-22 18:10N 35°37' E 139°59'0 0.0
2015-Mar-22 17:28N 35°37' E 139°59'0 0.0
2015-Mar-22 16:28N 35°37' E 139°59'0 0.0
2015-Mar-22 14:28N 35°37' E 139°59'0 0.0
2015-Mar-22 13:28N 35°37' E 139°59'0 0.0
2015-Mar-22 12:28N 35°37' E 139°59'1 1.5
2015-Mar-22 11:33N 35°36' E 139°58'1211.9
2015-Mar-22 10:33N 35°27' E 139°49'1010.3
2015-Mar-22 09:33N 35°17' E 139°46'1111.1
2015-Mar-22 08:34N 35°06' E 139°44'  
Track history (hours):
 
Tides and Currents Weather Stations Pressure Air Temp Water Temp Dewpoint Dewpoint Depression Visibility Wind Speed Wind Dir Waves Ship Positions

Shinkai Maru

Last reported at 2015-Mar-28 11:20 UTC. Time now 2015-Mar-28 12:18 UTC.
Position N 35°41' E 139°57'.

Length 76 m; draft 4.2 m.

Type: Cargo ship. MMSI: 431301346.

Date/timePositionNaut miles runAvg speedWind from/ knotsBaromVisibWave heightAir tempDewpointWater temp
2015-Mar-28 11:20N 35°41' E 139°57'0 0.0
2015-Mar-28 10:32N 35°41' E 139°57'0 0.0
2015-Mar-28 09:29N 35°41' E 139°57'0 0.0
2015-Mar-28 08:21N 35°41' E 139°57'0 0.0
2015-Mar-28 07:29N 35°41' E 139°57'0 0.0
2015-Mar-28 06:32N 35°41' E 139°57'0 0.0
2015-Mar-28 05:26N 35°41' E 139°57'0 0.0
2015-Mar-28 04:29N 35°41' E 139°57'0 0.0
2015-Mar-28 03:32N 35°41' E 139°57'0 0.0
2015-Mar-28 02:32N 35°41' E 139°57'0 0.0
2015-Mar-28 01:26N 35°41' E 139°57'0 0.0
2015-Mar-28 00:32N 35°41' E 139°57'0 0.0
2015-Mar-27 23:32N 35°41' E 139°57'0 0.0
2015-Mar-27 22:29N 35°41' E 139°57'0 0.0
2015-Mar-27 21:32N 35°41' E 139°57'0 0.0
2015-Mar-27 20:32N 35°41' E 139°57'0 0.0
2015-Mar-27 19:32N 35°41' E 139°57'0 0.0
2015-Mar-27 18:29N 35°41' E 139°57'0 0.0
2015-Mar-27 17:29N 35°41' E 139°57'0 0.0
2015-Mar-27 16:32N 35°41' E 139°57'0 0.0
2015-Mar-27 15:32N 35°41' E 139°57'0 0.0
2015-Mar-27 14:33N 35°41' E 139°57'6 6.4
2015-Mar-27 13:33N 35°34' E 139°57'1212.3
2015-Mar-27 12:33N 35°25' E 139°47'1111.0
2015-Mar-27 11:34N 35°14' E 139°47'1211.4
2015-Mar-27 10:33N 35°04' E 139°41'238 9.9
2015-Mar-26 10:25N 34°14' E 134°59'1312.9
2015-Mar-26 09:23N 34°27' E 135°01'1012.0
2015-Mar-26 08:33N 34°37' E 135°01'6 0.3
2015-Mar-25 10:30N 34°37' E 134°53'9 9.1
2015-Mar-25 09:33N 34°36' E 135°04'9 9.0
2015-Mar-25 08:32N 34°27' E 135°02'1210.1
2015-Mar-25 07:21N 34°15' E 134°59'810.1
2015-Mar-25 06:33N 34°07' E 135°00'232 8.8
2015-Mar-24 04:11N 35°03' E 139°34'711.9
2015-Mar-24 03:33N 35°07' E 139°42'1111.4
2015-Mar-24 02:33N 35°18' E 139°44'1010.2
2015-Mar-24 01:33N 35°28' E 139°48'1212.2
2015-Mar-24 00:33N 35°37' E 139°58'5 4.6
2015-Mar-23 23:33N 35°41' E 139°57'0 0.0
2015-Mar-23 22:33N 35°41' E 139°57'0 0.0
2015-Mar-23 21:27N 35°41' E 139°57'0 0.0
2015-Mar-23 20:33N 35°41' E 139°57'0 0.0
2015-Mar-23 19:33N 35°41' E 139°57'0 0.0
2015-Mar-23 18:33N 35°41' E 139°57'0 0.0
2015-Mar-23 17:30N 35°41' E 139°57'0 0.0
2015-Mar-23 16:33N 35°41' E 139°57'0 0.0
2015-Mar-23 15:33N 35°41' E 139°57'0 0.0
2015-Mar-23 14:33N 35°41' E 139°57'0 0.0
2015-Mar-23 13:30N 35°41' E 139°57'0 0.0
2015-Mar-23 12:27N 35°41' E 139°57'0 0.0
2015-Mar-23 11:24N 35°41' E 139°57'0 0.0
2015-Mar-23 10:30N 35°41' E 139°57'0 0.0
2015-Mar-23 09:33N 35°41' E 139°57'0 0.0
2015-Mar-23 08:33N 35°41' E 139°57'0 0.0
2015-Mar-23 07:30N 35°41' E 139°57'0 0.0
2015-Mar-23 06:30N 35°41' E 139°57'0 0.0
2015-Mar-23 05:33N 35°41' E 139°57'0 0.0
2015-Mar-23 04:30N 35°41' E 139°57'0 0.0
2015-Mar-23 03:27N 35°41' E 139°57'0 0.0
2015-Mar-23 02:33N 35°41' E 139°57'3 2.5
2015-Mar-23 01:33N 35°39' E 139°58'2 1.7
2015-Mar-23 00:28N 35°37' E 139°59'0 0.0
2015-Mar-22 23:28N 35°37' E 139°59'0 0.0
2015-Mar-22 22:28N 35°37' E 139°59'0 0.0
2015-Mar-22 21:28N 35°37' E 139°59'0 0.0
2015-Mar-22 20:16N 35°37' E 139°59'0 0.0
2015-Mar-22 19:16N 35°37' E 139°59'0 0.0
2015-Mar-22 18:10N 35°37' E 139°59'0 0.0
2015-Mar-22 17:28N 35°37' E 139°59'0 0.0
2015-Mar-22 16:28N 35°37' E 139°59'0 0.0
2015-Mar-22 14:28N 35°37' E 139°59'0 0.0
2015-Mar-22 13:28N 35°37' E 139°59'0 0.0
2015-Mar-22 12:28N 35°37' E 139°59'1 1.5
2015-Mar-22 11:33N 35°36' E 139°58'1211.9
2015-Mar-22 10:33N 35°27' E 139°49'1010.3
2015-Mar-22 09:33N 35°17' E 139°46'1111.1
2015-Mar-22 08:34N 35°06' E 139°44'  

Dump ship's entire track history